Time;durP1;ratioP1;P1;durP2;ratioP2;P2;SDS_P1;SDS_P2;PMS_P1;PMS_P2;Temp;Humidity;BMP_temperature;BMP_pressure;BME280_temperature;BME280_humidity;BME280_pressure;Samples;Min_cycle;Max_cycle;Signal;HPM_P1;HPM_P2
2024/03/16 00:01:40;;;;;;;1.20;0.68;;;11.20;99.90;;;;;;4951485;28;20045;-79
2024/03/16 00:04:06;;;;;;;1.58;1.48;;;11.20;99.90;;;;;;4962750;28;20106;-79
2024/03/16 00:06:33;;;;;;;0.32;0.32;;;11.10;99.90;;;;;;4946667;28;20046;-79
2024/03/16 00:08:59;;;;;;;0.52;0.52;;;11.20;99.90;;;;;;4949223;28;20042;-79
2024/03/16 00:11:27;;;;;;;1.30;1.27;;;11.20;99.90;;;;;;4948485;28;20050;-79
2024/03/16 00:13:52;;;;;;;2.75;2.47;;;11.20;99.90;;;;;;4959976;28;20110;-79
2024/03/16 00:16:19;;;;;;;2.97;1.30;;;11.10;99.90;;;;;;4988806;28;20133;-80
2024/03/16 00:18:44;;;;;;;0.60;0.60;;;11.20;99.90;;;;;;4959297;28;20117;-79
2024/03/16 00:21:10;;;;;;;1.00;0.85;;;11.10;99.90;;;;;;4963246;28;20100;-79
2024/03/16 00:23:36;;;;;;;0.82;0.82;;;11.10;99.90;;;;;;4983868;28;20053;-80
2024/03/16 00:26:01;;;;;;;2.28;2.10;;;11.00;99.90;;;;;;4983126;28;20093;-80
2024/03/16 00:28:27;;;;;;;0.50;0.50;;;10.90;99.90;;;;;;4981939;28;20046;-80
2024/03/16 00:30:53;;;;;;;0.40;0.40;;;10.80;99.90;;;;;;4964473;28;20289;-80
2024/03/16 00:33:19;;;;;;;2.30;1.88;;;10.70;99.90;;;;;;4992010;28;20057;-81
2024/03/16 00:35:44;;;;;;;1.45;1.40;;;10.60;99.90;;;;;;4964430;28;20046;-80
2024/03/16 00:38:10;;;;;;;5.63;0.75;;;10.50;99.90;;;;;;4965356;28;20103;-80
2024/03/16 00:40:36;;;;;;;2.42;1.73;;;10.40;99.90;;;;;;4970109;28;20046;-80
2024/03/16 00:43:01;;;;;;;1.75;1.58;;;10.40;99.90;;;;;;4950289;28;20043;-80
2024/03/16 00:45:27;;;;;;;1.02;0.43;;;10.30;99.90;;;;;;4983053;28;20030;-80
2024/03/16 00:47:55;;;;;;;0.50;0.50;;;10.20;99.90;;;;;;4977262;28;20956;-79
2024/03/16 00:50:21;;;;;;;2.83;2.05;;;10.20;99.90;;;;;;4961160;28;20049;-79
2024/03/16 00:52:47;;;;;;;3.28;3.03;;;10.10;99.90;;;;;;4960939;28;20409;-80
2024/03/16 00:55:13;;;;;;;0.30;0.30;;;10.10;99.90;;;;;;4982855;28;20124;-81
2024/03/16 00:57:38;;;;;;;0.55;0.55;;;10.10;99.90;;;;;;4952017;28;20070;-82
2024/03/16 01:00:08;;;;;;;1.88;1.45;;;10.10;99.90;;;;;;4973711;28;20072;-81
2024/03/16 01:02:33;;;;;;;0.20;0.20;;;10.10;99.90;;;;;;4980220;28;20049;-83
2024/03/16 01:04:59;;;;;;;0.30;0.30;;;10.00;99.90;;;;;;4952163;28;20034;-79
2024/03/16 01:07:25;;;;;;;0.25;0.25;;;10.10;99.90;;;;;;4989769;28;20125;-79
2024/03/16 01:09:50;;;;;;;0.50;0.50;;;10.00;99.90;;;;;;4953600;28;20034;-79
2024/03/16 01:12:16;;;;;;;0.63;0.63;;;10.00;99.90;;;;;;4970834;28;20041;-80
2024/03/16 01:14:42;;;;;;;1.50;0.90;;;10.00;99.90;;;;;;4947991;28;20192;-79
2024/03/16 01:17:08;;;;;;;0.68;0.68;;;10.00;99.90;;;;;;4967042;28;20093;-79
2024/03/16 01:19:35;;;;;;;0.68;0.68;;;10.00;99.90;;;;;;4970598;28;20038;-80
2024/03/16 01:22:01;;;;;;;1.02;1.02;;;10.00;99.90;;;;;;4954072;28;20049;-79
2024/03/16 01:24:26;;;;;;;;;;;10.00;99.90;;;;;;4954691;28;20046;-79
2024/03/16 01:26:53;;;;;;;1.15;1.15;;;10.00;99.90;;;;;;4986505;28;19987;-79
2024/03/16 01:29:18;;;;;;;0.70;0.70;;;9.90;99.90;;;;;;4937367;28;20557;-78
2024/03/16 01:31:44;;;;;;;0.40;0.40;;;10.00;99.90;;;;;;4988923;28;20126;-78
2024/03/16 01:34:10;;;;;;;0.65;0.65;;;9.90;99.90;;;;;;4968422;28;20042;-78
2024/03/16 01:36:36;;;;;;;;;;;9.90;99.90;;;;;;4940186;28;20081;-78
2024/03/16 01:39:02;;;;;;;1.17;0.95;;;9.90;99.90;;;;;;4952398;28;19967;-78
2024/03/16 01:41:28;;;;;;;0.52;0.47;;;9.90;99.90;;;;;;4969904;28;20104;-78
2024/03/16 01:43:53;;;;;;;0.50;0.50;;;9.80;99.90;;;;;;4953769;28;20034;-79
2024/03/16 01:46:19;;;;;;;0.40;0.40;;;9.70;99.90;;;;;;4969797;28;20069;-80
2024/03/16 01:48:46;;;;;;;0.30;0.30;;;9.70;99.90;;;;;;4970715;28;20046;-80
2024/03/16 01:51:12;;;;;;;1.20;1.17;;;9.50;99.90;;;;;;4971547;28;20038;-79
2024/03/16 01:53:38;;;;;;;1.00;1.00;;;9.40;99.90;;;;;;4969148;28;20046;-79
2024/03/16 01:56:04;;;;;;;1.25;1.25;;;9.30;99.90;;;;;;4969028;28;20061;-80
2024/03/16 01:58:36;;;;;;;0.40;0.40;;;9.00;99.90;;;;;;4956105;28;20038;-79
2024/03/16 02:01:02;;;;;;;0.45;0.45;;;8.80;99.90;;;;;;4947352;28;20030;-79
2024/03/16 02:03:28;;;;;;;;;;;8.60;99.90;;;;;;4968175;28;20125;-79
2024/03/16 02:05:53;;;;;;;0.50;0.50;;;8.50;99.90;;;;;;4948631;28;20011;-79
2024/03/16 02:08:19;;;;;;;0.60;0.60;;;9.20;99.90;;;;;;4970812;28;20078;-79
2024/03/16 02:10:45;;;;;;;0.40;0.40;;;8.30;99.90;;;;;;4953804;28;20038;-78
2024/03/16 02:13:11;;;;;;;0.40;0.40;;;8.20;99.90;;;;;;4968619;28;20507;-79
2024/03/16 02:15:37;;;;;;;0.30;0.30;;;8.20;99.90;;;;;;4937843;28;20097;-79
2024/03/16 02:18:02;;;;;;;0.40;0.40;;;8.10;99.90;;;;;;4970923;28;20030;-78
2024/03/16 02:20:31;;;;;;;0.50;0.50;;;8.10;99.90;;;;;;4953259;28;20131;-78
2024/03/16 02:22:57;;;;;;;0.52;0.52;;;8.10;99.90;;;;;;4954171;28;20043;-78
2024/03/16 02:25:23;;;;;;;0.70;0.70;;;8.00;99.90;;;;;;4943143;28;20041;-79
2024/03/16 02:27:48;;;;;;;0.40;0.40;;;8.00;99.90;;;;;;4967678;28;20069;-78
2024/03/16 02:30:15;;;;;;;0.40;0.40;;;8.00;99.90;;;;;;4956449;28;20046;-80
2024/03/16 02:32:40;;;;;;;;;;;8.10;99.90;;;;;;4954265;28;20045;-78
2024/03/16 02:35:08;;;;;;;0.50;0.50;;;7.90;99.90;;;;;;4953056;28;20324;-78
2024/03/16 02:37:33;;;;;;;0.40;0.40;;;7.90;99.90;;;;;;4968569;28;20421;-79
2024/03/16 02:39:59;;;;;;;0.50;0.50;;;8.30;99.90;;;;;;4954674;28;20046;-78
2024/03/16 02:42:25;;;;;;;0.40;0.40;;;7.80;99.90;;;;;;4969430;28;20502;-78
2024/03/16 02:44:52;;;;;;;0.50;0.50;;;7.80;99.90;;;;;;4970276;28;20042;-79
2024/03/16 02:47:18;;;;;;;0.60;0.60;;;7.80;99.90;;;;;;4954286;28;20042;-80
2024/03/16 02:49:44;;;;;;;0.50;0.50;;;7.80;99.90;;;;;;4942538;28;20046;-80
2024/03/16 02:52:10;;;;;;;0.50;0.50;;;7.70;99.90;;;;;;4972741;28;20050;-78
2024/03/16 02:54:36;;;;;;;3.13;0.98;;;7.70;99.90;;;;;;4973536;28;20064;-78
2024/03/16 02:57:02;;;;;;;0.40;0.40;;;7.70;99.90;;;;;;4972330;28;20042;-79
2024/03/16 02:59:29;;;;;;;0.40;0.40;;;7.70;99.90;;;;;;4974603;28;20034;-78
2024/03/16 03:01:57;;;;;;;0.63;0.63;;;7.60;99.90;;;;;;4990761;28;20053;-79
2024/03/16 03:04:23;;;;;;;0.50;0.50;;;7.60;99.90;;;;;;4971409;28;20039;-79
2024/03/16 03:06:49;;;;;;;3.92;0.77;;;7.60;99.90;;;;;;4971970;28;20046;-80
2024/03/16 03:09:15;;;;;;;0.50;0.50;;;7.50;99.90;;;;;;4972656;28;20050;-79
2024/03/16 03:11:40;;;;;;;0.47;0.47;;;7.50;99.90;;;;;;4962755;28;20044;-80
2024/03/16 03:14:06;;;;;;;0.40;0.40;;;7.50;99.90;;;;;;4953246;28;20050;-79
2024/03/16 03:16:32;;;;;;;0.60;0.60;;;7.50;99.90;;;;;;4955475;28;20046;-80
2024/03/16 03:18:58;;;;;;;0.40;0.40;;;8.50;99.90;;;;;;4972965;28;20100;-78
2024/03/16 03:21:23;;;;;;;0.50;0.50;;;7.40;99.90;;;;;;4993345;28;20042;-78
2024/03/16 03:23:49;;;;;;;0.50;0.50;;;7.40;99.90;;;;;;4974456;28;20125;-79
2024/03/16 03:26:15;;;;;;;0.50;0.50;;;7.40;99.90;;;;;;4973414;28;20066;-79
2024/03/16 03:28:40;;;;;;;0.40;0.40;;;7.40;99.90;;;;;;4987779;28;20045;-78
2024/03/16 03:31:10;;;;;;;0.73;0.73;;;6.50;99.90;;;;;;4964178;28;20049;-78
2024/03/16 03:33:36;;;;;;;0.50;0.50;;;7.30;99.90;;;;;;4993426;28;20279;-78
2024/03/16 03:36:04;;;;;;;0.60;0.60;;;7.40;99.90;;;;;;4972559;28;20047;-78
2024/03/16 03:38:30;;;;;;;0.50;0.50;;;7.30;99.90;;;;;;4991999;28;20038;-78
2024/03/16 03:40:57;;;;;;;0.60;0.60;;;7.60;99.90;;;;;;4976517;28;20042;-79
2024/03/16 03:43:24;;;;;;;0.50;0.50;;;7.20;99.90;;;;;;4974401;28;20045;-78
2024/03/16 03:45:52;;;;;;;0.60;0.60;;;7.10;99.90;;;;;;4991353;28;20561;-78
2024/03/16 03:50:54;;;;;;;0.80;0.80;;;7.00;99.90;;;;;;4987133;28;20046;-78
2024/03/16 03:53:21;;;;;;;0.50;0.50;;;7.00;99.90;;;;;;4971894;28;20125;-77
2024/03/16 03:55:47;;;;;;;0.60;0.60;;;7.00;99.90;;;;;;4972628;28;20030;-77
2024/03/16 03:58:13;;;;;;;0.55;0.55;;;7.00;99.90;;;;;;4972572;28;20107;-77
2024/03/16 04:00:39;;;;;;;0.52;0.52;;;7.20;99.90;;;;;;4970769;28;20055;-77
2024/03/16 04:03:08;;;;;;;0.47;0.47;;;7.90;99.90;;;;;;4957754;28;20042;-78
2024/03/16 04:05:34;;;;;;;0.60;0.60;;;7.00;99.90;;;;;;4957865;28;20100;-79
2024/03/16 04:08:00;;;;;;;0.60;0.60;;;7.00;99.90;;;;;;4968902;28;20406;-78
2024/03/16 04:10:26;;;;;;;0.50;0.50;;;7.30;99.90;;;;;;4970121;28;20092;-78
2024/03/16 04:12:52;;;;;;;0.50;0.50;;;7.50;99.90;;;;;;4973148;28;20130;-78
2024/03/16 04:15:18;;;;;;;0.68;0.68;;;6.90;99.90;;;;;;4971708;28;20038;-78
2024/03/16 04:17:44;;;;;;;7.40;1.00;;;6.80;99.90;;;;;;4953262;28;20039;-78
2024/03/16 04:20:10;;;;;;;0.50;0.50;;;7.10;99.90;;;;;;4941579;28;20114;-77
2024/03/16 04:22:37;;;;;;;0.80;0.80;;;6.80;99.90;;;;;;4991870;28;20506;-78
2024/03/16 04:25:03;;;;;;;0.60;0.60;;;6.80;99.90;;;;;;4994119;28;20041;-78
2024/03/16 04:27:30;;;;;;;0.40;0.40;;;6.70;99.90;;;;;;4953804;28;20109;-77
2024/03/16 04:29:56;;;;;;;1.65;1.55;;;6.70;99.90;;;;;;4956120;28;20608;-77
2024/03/16 04:32:24;;;;;;;0.40;0.40;;;6.70;99.90;;;;;;4970488;28;20132;-77
2024/03/16 04:34:49;;;;;;;0.50;0.50;;;6.70;99.90;;;;;;4961051;28;20045;-78
2024/03/16 04:37:15;;;;;;;0.60;0.60;;;6.70;99.90;;;;;;4971415;28;20458;-78
2024/03/16 04:39:43;;;;;;;0.50;0.50;;;6.70;99.90;;;;;;4953056;28;20039;-77
2024/03/16 04:42:12;;;;;;;0.45;0.45;;;6.70;99.90;;;;;;4952051;28;20038;-78
2024/03/16 04:44:38;;;;;;;0.50;0.50;;;7.30;99.90;;;;;;4969893;28;20057;-79
2024/03/16 04:47:04;;;;;;;0.65;0.65;;;6.80;99.90;;;;;;4969670;28;20050;-79
2024/03/16 04:49:30;;;;;;;0.50;0.50;;;6.60;99.90;;;;;;4954577;28;20438;-79
2024/03/16 04:51:56;;;;;;;;;;;6.60;99.90;;;;;;4992723;28;20527;-78
2024/03/16 04:54:22;;;;;;;0.52;0.52;;;6.60;99.90;;;;;;4974325;28;19957;-79
2024/03/16 04:56:47;;;;;;;1.05;1.05;;;6.50;99.90;;;;;;4975771;28;20391;-79
2024/03/16 04:59:13;;;;;;;0.50;0.50;;;6.50;99.90;;;;;;4987969;28;20034;-77
2024/03/16 05:01:39;;;;;;;0.50;0.50;;;6.50;99.90;;;;;;4971614;28;20538;-77
2024/03/16 05:04:05;;;;;;;0.60;0.60;;;6.60;99.90;;;;;;4955106;28;20038;-78
2024/03/16 05:06:31;;;;;;;0.38;0.38;;;7.10;99.90;;;;;;4991559;28;20088;-78
2024/03/16 05:08:57;;;;;;;;;;;6.50;99.90;;;;;;4990296;28;20092;-77
2024/03/16 05:11:23;;;;;;;0.60;0.60;;;6.50;99.90;;;;;;4972228;28;19918;-77
2024/03/16 05:13:49;;;;;;;0.40;0.40;;;7.00;99.90;;;;;;4965242;28;20421;-77
2024/03/16 05:16:15;;;;;;;0.40;0.40;;;6.50;99.90;;;;;;4968658;28;20536;-76
2024/03/16 05:18:41;;;;;;;0.47;0.47;;;6.90;99.90;;;;;;4954958;28;20043;-76
2024/03/16 05:21:08;;;;;;;0.80;0.80;;;6.50;99.90;;;;;;4954724;28;20045;-78
2024/03/16 05:23:34;;;;;;;0.55;0.55;;;6.70;99.90;;;;;;4987744;28;20057;-77
2024/03/16 05:26:00;;;;;;;0.55;0.55;;;6.50;99.90;;;;;;4987885;28;20042;-76
2024/03/16 05:28:25;;;;;;;0.50;0.50;;;6.60;99.90;;;;;;4952082;28;20114;-77
2024/03/16 05:30:52;;;;;;;2.58;2.47;;;6.60;99.90;;;;;;4973044;28;20086;-77
2024/03/16 05:33:18;;;;;;;0.40;0.40;;;6.80;99.90;;;;;;4969639;28;20077;-77
2024/03/16 05:35:44;;;;;;;0.50;0.50;;;7.40;99.90;;;;;;4950175;28;20050;-77
2024/03/16 05:38:10;;;;;;;0.40;0.40;;;6.60;99.90;;;;;;4952285;28;20388;-77
2024/03/16 05:40:39;;;;;;;0.60;0.60;;;6.70;99.90;;;;;;4935181;28;20153;-76
2024/03/16 05:43:04;;;;;;;0.40;0.40;;;6.70;99.90;;;;;;4966943;28;20520;-76
2024/03/16 05:45:30;;;;;;;0.60;0.60;;;7.50;99.90;;;;;;4932048;28;20042;-78
2024/03/16 05:47:55;;;;;;;1.60;1.55;;;6.70;99.90;;;;;;4969014;28;20533;-77
2024/03/16 05:50:21;;;;;;;0.80;0.80;;;6.60;99.90;;;;;;4934736;28;20042;-77
2024/03/16 05:52:47;;;;;;;0.50;0.50;;;6.60;99.90;;;;;;4935583;28;20074;-77
2024/03/16 05:55:12;;;;;;;0.50;0.50;;;6.70;99.90;;;;;;4936068;28;20054;-77
2024/03/16 05:57:38;;;;;;;0.68;0.68;;;6.70;99.90;;;;;;4950789;28;20042;-77
2024/03/16 06:00:13;;;;;;;0.60;0.60;;;6.70;99.90;;;;;;4950410;28;20051;-77
2024/03/16 06:02:39;;;;;;;0.50;0.50;;;6.60;99.90;;;;;;4935347;28;20313;-78
2024/03/16 06:05:05;;;;;;;;;;;7.30;99.90;;;;;;4935011;28;20075;-77
2024/03/16 06:07:31;;;;;;;0.50;0.50;;;6.60;99.90;;;;;;4944763;28;19925;-78
2024/03/16 06:09:56;;;;;;;0.40;0.40;;;6.70;99.90;;;;;;4918419;28;20058;-77
2024/03/16 06:12:23;;;;;;;0.50;0.50;;;6.70;99.90;;;;;;4937356;28;20048;-78
2024/03/16 06:14:49;;;;;;;1.65;1.65;;;6.80;99.90;;;;;;4953755;28;20191;-78
2024/03/16 06:17:15;;;;;;;0.40;0.40;;;6.70;99.90;;;;;;4960857;28;20042;-77
2024/03/16 06:19:41;;;;;;;0.50;0.50;;;6.60;99.90;;;;;;4951805;28;20043;-77
2024/03/16 06:22:07;;;;;;;0.50;0.50;;;6.70;99.90;;;;;;4950987;28;20043;-77
2024/03/16 06:24:33;;;;;;;0.50;0.50;;;6.70;99.90;;;;;;4937401;28;20038;-77
2024/03/16 06:27:05;;;;;;;1.27;0.70;;;6.80;99.90;;;;;;4924808;28;20058;-77
2024/03/16 06:29:34;;;;;;;0.40;0.40;;;6.70;99.90;;;;;;4939950;28;20078;-77
2024/03/16 06:32:06;;;;;;;0.47;0.47;;;6.70;99.90;;;;;;4939733;28;20056;-76
2024/03/16 06:34:35;;;;;;;0.52;0.52;;;6.70;99.90;;;;;;4938902;28;20046;-77
2024/03/16 06:37:02;;;;;;;0.40;0.40;;;6.70;99.90;;;;;;4964657;28;20035;-77
2024/03/16 06:39:29;;;;;;;0.55;0.55;;;6.80;99.90;;;;;;4942216;28;20041;-77
2024/03/16 06:41:54;;;;;;;0.43;0.43;;;6.70;99.90;;;;;;4958271;28;20116;-76
2024/03/16 06:44:20;;;;;;;0.45;0.45;;;7.80;99.90;;;;;;4958134;28;20043;-76
2024/03/16 06:46:46;;;;;;;0.40;0.40;;;6.80;99.90;;;;;;4922824;28;20046;-76
2024/03/16 06:49:11;;;;;;;0.60;0.60;;;6.70;99.90;;;;;;4955584;28;20039;-79
2024/03/16 06:51:37;;;;;;;0.47;0.47;;;6.80;99.90;;;;;;4957107;28;20074;-76
2024/03/16 06:54:05;;;;;;;0.50;0.50;;;7.60;99.90;;;;;;4941098;28;20049;-76
2024/03/16 06:56:31;;;;;;;0.45;0.45;;;6.80;99.90;;;;;;4945152;28;20079;-78
2024/03/16 06:58:56;;;;;;;0.47;0.47;;;7.20;99.90;;;;;;4957361;28;20121;-78
2024/03/16 07:01:24;;;;;;;0.47;0.47;;;7.00;99.90;;;;;;4956923;28;20043;-78
2024/03/16 07:03:51;;;;;;;0.63;0.57;;;6.90;99.90;;;;;;4944188;28;20042;-78
2024/03/16 07:06:16;;;;;;;0.68;0.68;;;7.00;99.90;;;;;;4947346;28;20082;-78
2024/03/16 07:08:42;;;;;;;0.45;0.45;;;6.90;99.90;;;;;;4951639;28;20128;-79
2024/03/16 07:11:08;;;;;;;0.43;0.43;;;7.00;99.90;;;;;;4967457;28;20123;-79
2024/03/16 07:13:35;;;;;;;0.40;0.40;;;7.00;99.90;;;;;;4936483;28;20046;-79
2024/03/16 07:16:01;;;;;;;0.40;0.40;;;7.00;99.90;;;;;;4948269;28;20085;-78
2024/03/16 07:18:26;;;;;;;0.30;0.30;;;7.10;99.90;;;;;;4947702;28;20125;-78
2024/03/16 07:20:52;;;;;;;0.40;0.40;;;7.00;99.90;;;;;;4949344;28;20079;-78
2024/03/16 07:23:18;;;;;;;0.43;0.43;;;7.00;99.90;;;;;;4972480;28;20031;-78
2024/03/16 07:25:49;;;;;;;0.82;0.82;;;7.10;99.90;;;;;;4973548;28;20038;-78
2024/03/16 07:28:16;;;;;;;0.40;0.40;;;7.10;99.90;;;;;;4974427;28;20066;-78
2024/03/16 07:30:41;;;;;;;0.35;0.35;;;7.20;99.90;;;;;;4942583;28;20502;-78
2024/03/16 07:33:07;;;;;;;0.70;0.70;;;7.20;99.90;;;;;;4956266;28;20050;-79
2024/03/16 07:35:35;;;;;;;0.50;0.50;;;7.20;99.90;;;;;;4954310;28;20061;-78
2024/03/16 07:38:01;;;;;;;0.60;0.60;;;7.20;99.90;;;;;;4921313;28;20051;-78
2024/03/16 07:40:26;;;;;;;0.50;0.50;;;7.30;99.90;;;;;;4969405;28;20097;-78
2024/03/16 07:42:52;;;;;;;0.30;0.30;;;7.30;99.90;;;;;;4968797;28;20545;-79
2024/03/16 07:45:18;;;;;;;0.47;0.47;;;7.60;99.90;;;;;;4951797;28;20173;-80
2024/03/16 07:47:44;;;;;;;;;;;7.40;99.90;;;;;;4955335;28;20125;-80
2024/03/16 07:50:10;;;;;;;0.40;0.40;;;7.50;99.90;;;;;;4972381;28;19932;-80
2024/03/16 07:52:35;;;;;;;0.95;0.95;;;7.90;99.90;;;;;;4922131;28;20142;-77
2024/03/16 07:55:01;;;;;;;0.45;0.45;;;7.40;99.90;;;;;;4970510;28;20041;-78
2024/03/16 07:57:27;;;;;;;0.52;0.52;;;7.40;99.90;;;;;;4971144;28;20546;-77
2024/03/16 07:59:54;;;;;;;0.30;0.30;;;7.40;99.90;;;;;;4971336;28;20099;-78
2024/03/16 08:02:19;;;;;;;;;;;7.50;99.90;;;;;;4940841;28;20035;-77
2024/03/16 08:04:45;;;;;;;0.50;0.50;;;7.50;99.90;;;;;;4952782;28;19938;-78
2024/03/16 08:07:11;;;;;;;0.30;0.30;;;7.60;99.90;;;;;;4918270;28;20173;-78
2024/03/16 08:09:37;;;;;;;2.53;1.10;;;7.60;99.90;;;;;;4949276;28;20061;-78
2024/03/16 08:12:03;;;;;;;0.60;0.60;;;7.70;99.90;;;;;;4933053;28;20081;-78
2024/03/16 08:14:34;;;;;;;0.50;0.50;;;7.80;99.90;;;;;;4931652;28;20039;-79
2024/03/16 08:17:03;;;;;;;0.40;0.40;;;9.50;99.90;;;;;;4939429;28;20451;-77
2024/03/16 08:19:29;;;;;;;0.40;0.40;;;8.00;99.90;;;;;;4952010;28;20042;-78
2024/03/16 08:21:55;;;;;;;0.50;0.50;;;8.10;99.90;;;;;;4968365;28;20407;-78
2024/03/16 08:24:21;;;;;;;0.35;0.35;;;8.10;99.90;;;;;;4953860;28;20050;-78
2024/03/16 08:26:47;;;;;;;0.40;0.40;;;8.10;99.90;;;;;;4973788;28;20054;-80
2024/03/16 08:29:12;;;;;;;0.95;0.95;;;8.00;99.90;;;;;;4991337;28;20057;-78
2024/03/16 08:31:38;;;;;;;0.32;0.32;;;7.90;99.90;;;;;;4973756;28;20046;-79
2024/03/16 08:34:04;;;;;;;0.45;0.45;;;7.80;99.90;;;;;;4992734;28;20529;-79
2024/03/16 08:36:30;;;;;;;5.30;2.17;;;7.80;99.90;;;;;;4991703;28;20034;-79
2024/03/16 08:38:56;;;;;;;;;;;7.70;99.90;;;;;;4956426;28;20068;-79
2024/03/16 08:41:22;;;;;;;0.40;0.40;;;7.80;99.90;;;;;;4970591;28;20468;-78
2024/03/16 08:43:48;;;;;;;0.30;0.30;;;7.90;99.90;;;;;;4970991;28;20042;-78
2024/03/16 08:46:14;;;;;;;0.40;0.40;;;8.00;99.90;;;;;;4990360;28;20462;-78
2024/03/16 08:48:40;;;;;;;0.85;0.85;;;8.40;99.90;;;;;;4989497;28;20117;-79
2024/03/16 08:51:06;;;;;;;0.43;0.43;;;8.20;99.90;;;;;;4971476;28;20410;-78
2024/03/16 08:53:31;;;;;;;0.50;0.50;;;8.30;99.90;;;;;;4954520;28;21289;-78
2024/03/16 08:55:59;;;;;;;0.40;0.40;;;8.30;99.90;;;;;;4989545;28;20116;-78
2024/03/16 08:58:25;;;;;;;0.43;0.43;;;8.30;99.90;;;;;;4954472;28;20034;-79
2024/03/16 09:00:53;;;;;;;0.88;0.85;;;8.30;99.90;;;;;;4990577;28;20069;-79
2024/03/16 09:03:20;;;;;;;0.32;0.32;;;8.40;99.90;;;;;;4971707;28;20069;-78
2024/03/16 09:05:46;;;;;;;0.60;0.60;;;8.40;99.90;;;;;;4971989;28;20133;-77
2024/03/16 09:08:11;;;;;;;0.30;0.30;;;8.50;99.90;;;;;;4972125;28;20113;-78
2024/03/16 09:10:37;;;;;;;0.40;0.40;;;8.60;99.90;;;;;;4989623;28;20487;-78
2024/03/16 09:13:03;;;;;;;0.30;0.30;;;8.60;99.90;;;;;;4988060;28;20042;-78
2024/03/16 09:15:29;;;;;;;0.47;0.47;;;8.60;99.90;;;;;;4970398;28;20048;-78
2024/03/16 09:17:54;;;;;;;0.40;0.40;;;8.70;99.90;;;;;;4990598;28;20162;-78
2024/03/16 09:20:20;;;;;;;0.40;0.40;;;8.70;99.90;;;;;;4972447;28;20034;-79
2024/03/16 09:22:48;;;;;;;9.27;0.65;;;8.90;99.90;;;;;;4985767;28;20038;-78
2024/03/16 09:25:14;;;;;;;0.30;0.30;;;8.90;99.90;;;;;;4991537;28;20494;-78
2024/03/16 09:27:39;;;;;;;;;;;8.90;99.90;;;;;;4968448;28;20070;-78
2024/03/16 09:30:07;;;;;;;0.50;0.50;;;8.90;99.90;;;;;;4988711;28;19932;-78
2024/03/16 09:32:34;;;;;;;0.40;0.40;;;8.90;99.90;;;;;;4989983;28;20112;-78
2024/03/16 09:35:00;;;;;;;0.30;0.30;;;8.70;99.90;;;;;;4988893;28;20045;-77
2024/03/16 09:37:26;;;;;;;;;;;8.70;99.90;;;;;;4990430;28;20050;-78
2024/03/16 09:39:51;;;;;;;0.30;0.30;;;8.80;99.90;;;;;;4989922;28;19924;-78
2024/03/16 09:42:17;;;;;;;0.40;0.40;;;8.90;99.90;;;;;;4969038;28;20041;-77
2024/03/16 09:44:45;;;;;;;0.40;0.40;;;9.10;99.90;;;;;;4972497;28;20093;-78
2024/03/16 09:47:15;;;;;;;0.43;0.43;;;9.30;99.90;;;;;;4941624;28;20073;-77
2024/03/16 09:49:42;;;;;;;0.35;0.35;;;9.50;99.90;;;;;;4972679;28;20054;-77
2024/03/16 09:52:12;;;;;;;0.30;0.30;;;9.70;99.90;;;;;;4988578;28;20117;-77
2024/03/16 09:54:38;;;;;;;0.40;0.40;;;9.70;99.90;;;;;;4988444;28;20542;-77
2024/03/16 09:57:06;;;;;;;0.45;0.45;;;9.60;99.90;;;;;;4971290;28;20133;-77
2024/03/16 09:59:33;;;;;;;0.40;0.40;;;9.60;99.90;;;;;;4989391;28;20045;-77
2024/03/16 10:01:59;;;;;;;0.65;0.65;;;9.40;99.90;;;;;;4987417;28;20062;-78
2024/03/16 10:04:26;;;;;;;0.40;0.40;;;9.20;99.90;;;;;;4988365;28;20043;-77
2024/03/16 10:06:52;;;;;;;0.50;0.50;;;8.90;99.90;;;;;;4955160;28;20053;-77
2024/03/16 10:09:18;;;;;;;0.30;0.30;;;8.90;99.90;;;;;;4986323;28;20050;-78
2024/03/16 10:11:44;;;;;;;;;;;9.10;99.90;;;;;;4993380;28;20061;-77
2024/03/16 10:14:11;;;;;;;0.47;0.40;;;9.20;99.90;;;;;;4956293;28;19917;-77
2024/03/16 10:16:40;;;;;;;0.38;0.38;;;10.40;99.90;;;;;;4989628;28;20042;-78
2024/03/16 10:19:08;;;;;;;0.30;0.30;;;9.00;99.90;;;;;;4988500;28;20525;-78
2024/03/16 10:21:34;;;;;;;0.38;0.38;;;9.20;99.90;;;;;;4989451;28;20061;-78
2024/03/16 10:24:00;;;;;;;1.02;1.02;;;9.30;99.90;;;;;;4989397;28;20031;-77
2024/03/16 10:26:32;;;;;;;0.30;0.30;;;9.50;99.90;;;;;;4971323;28;20493;-77
2024/03/16 10:29:03;;;;;;;0.30;0.30;;;9.60;99.90;;;;;;4971169;28;20501;-77
2024/03/16 10:31:32;;;;;;;0.30;0.30;;;9.70;99.90;;;;;;4972436;28;20046;-78
2024/03/16 10:33:59;;;;;;;0.38;0.38;;;9.70;99.90;;;;;;4969576;28;20043;-77
2024/03/16 10:36:26;;;;;;;0.30;0.30;;;9.50;99.90;;;;;;4954325;28;20495;-77
2024/03/16 10:38:54;;;;;;;0.73;0.73;;;9.30;99.90;;;;;;4971028;28;20077;-77
2024/03/16 10:41:20;;;;;;;0.25;0.25;;;9.30;99.90;;;;;;4970743;28;20112;-78
2024/03/16 10:43:46;;;;;;;0.98;0.98;;;9.50;99.90;;;;;;4987858;28;20046;-78
2024/03/16 10:46:15;;;;;;;0.32;0.32;;;9.70;99.90;;;;;;4970856;28;20458;-78
2024/03/16 10:48:44;;;;;;;1.10;1.10;;;9.90;99.90;;;;;;4988502;28;20046;-79
2024/03/16 10:51:15;;;;;;;0.40;0.40;;;9.80;99.90;;;;;;4971272;28;20071;-77
2024/03/16 10:53:41;;;;;;;0.35;0.35;;;9.70;99.90;;;;;;4970974;28;20060;-77
2024/03/16 10:56:07;;;;;;;0.38;0.38;;;9.90;99.90;;;;;;4990317;28;20476;-78
2024/03/16 10:58:33;;;;;;;0.80;0.80;;;10.10;99.90;;;;;;4956009;28;20034;-78
2024/03/16 11:01:15;;;;;;;;;;;10.20;99.90;;;;;;4972161;28;20045;-77
2024/03/16 11:03:43;;;;;;;0.30;0.30;;;10.00;99.90;;;;;;4998585;28;20393;-77
2024/03/16 11:06:18;;;;;;;0.30;0.30;;;9.80;99.90;;;;;;4978197;28;20049;-80
2024/03/16 11:08:46;;;;;;;0.40;0.40;;;9.80;99.90;;;;;;4968180;28;20483;-77
2024/03/16 11:11:16;;;;;;;3.75;0.65;;;9.90;99.90;;;;;;4986387;28;20116;-78
2024/03/16 11:14:11;;;;;;;0.35;0.35;;;10.10;99.90;;;;;;4958495;28;20042;-78
2024/03/16 11:16:44;;;;;;;0.40;0.40;;;10.40;99.90;;;;;;4988308;28;20056;-78
2024/03/16 11:19:17;;;;;;;0.88;0.88;;;10.10;99.90;;;;;;4973946;28;20034;-78
2024/03/16 11:21:52;;;;;;;0.32;0.32;;;10.00;99.90;;;;;;4978059;28;20502;-78
2024/03/16 11:24:20;;;;;;;0.68;0.68;;;10.20;99.90;;;;;;4988898;28;20524;-78
2024/03/16 11:26:46;;;;;;;0.32;0.32;;;10.50;99.90;;;;;;4991199;28;20070;-77
2024/03/16 11:29:16;;;;;;;;;;;10.70;99.90;;;;;;4959383;28;20061;-78
2024/03/16 11:31:44;;;;;;;0.40;0.40;;;10.80;99.90;;;;;;4974711;28;19917;-78
2024/03/16 11:34:15;;;;;;;0.30;0.30;;;10.80;99.90;;;;;;4973966;28;20042;-78
2024/03/16 11:36:42;;;;;;;0.30;0.30;;;10.70;99.90;;;;;;4991744;28;20050;-78
2024/03/16 11:39:11;;;;;;;0.30;0.30;;;10.40;99.90;;;;;;4974670;28;20042;-78
2024/03/16 11:41:59;;;;;;;0.30;0.30;;;10.30;99.90;;;;;;4968590;28;20042;-78
2024/03/16 11:44:26;;;;;;;0.20;0.20;;;10.20;99.90;;;;;;4988914;28;20110;-77
2024/03/16 11:46:54;;;;;;;0.20;0.20;;;10.20;99.90;;;;;;4974851;28;20494;-78
2024/03/16 11:49:21;;;;;;;0.30;0.30;;;10.30;99.90;;;;;;4990450;28;20046;-78
2024/03/16 11:51:48;;;;;;;0.30;0.30;;;10.40;99.90;;;;;;4992031;28;20434;-77
2024/03/16 11:54:15;;;;;;;1.02;1.02;;;10.60;99.90;;;;;;4989463;28;20038;-78
2024/03/16 11:56:42;;;;;;;0.35;0.35;;;10.60;99.90;;;;;;4988319;28;20529;-78
2024/03/16 11:59:14;;;;;;;0.40;0.40;;;10.40;99.90;;;;;;4972345;28;20086;-78
2024/03/16 12:01:42;;;;;;;0.55;0.55;;;10.20;99.90;;;;;;4977071;28;20044;-78
2024/03/16 12:04:12;;;;;;;1.10;1.02;;;10.40;99.90;;;;;;4992255;28;20039;-78
2024/03/16 12:06:39;;;;;;;0.35;0.35;;;10.30;99.90;;;;;;4989668;28;20149;-78
2024/03/16 12:09:13;;;;;;;0.30;0.30;;;10.30;99.90;;;;;;4971487;28;20144;-78
2024/03/16 12:11:44;;;;;;;8.30;1.67;;;10.30;99.90;;;;;;4972520;28;20509;-78
2024/03/16 12:14:10;;;;;;;0.40;0.40;;;10.30;99.90;;;;;;4987352;28;20046;-79
2024/03/16 12:16:41;;;;;;;0.40;0.40;;;10.40;99.90;;;;;;4956191;28;20072;-77
2024/03/16 12:19:17;;;;;;;0.38;0.38;;;10.50;99.90;;;;;;4990238;28;20038;-78
2024/03/16 12:21:48;;;;;;;0.30;0.30;;;10.30;99.90;;;;;;4993470;28;20042;-77
2024/03/16 12:24:15;;;;;;;0.40;0.40;;;10.10;99.90;;;;;;4973100;28;20551;-77
2024/03/16 12:26:44;;;;;;;0.30;0.30;;;10.00;99.90;;;;;;4970481;28;20627;-78
2024/03/16 12:29:16;;;;;;;0.30;0.30;;;9.90;99.90;;;;;;4973894;28;20069;-78
2024/03/16 12:31:47;;;;;;;0.30;0.30;;;10.00;99.90;;;;;;4991155;28;20042;-78
2024/03/16 12:34:14;;;;;;;0.30;0.30;;;10.20;99.90;;;;;;4971208;28;20038;-77
2024/03/16 12:36:40;;;;;;;0.20;0.20;;;10.40;99.90;;;;;;4990555;28;20046;-78
2024/03/16 12:39:11;;;;;;;1.17;1.17;;;10.50;99.90;;;;;;4973757;28;20120;-78
2024/03/16 12:41:43;;;;;;;0.30;0.30;;;10.40;99.90;;;;;;4927333;28;20128;-77
2024/03/16 12:44:09;;;;;;;0.40;0.40;;;10.30;99.90;;;;;;4974675;28;20045;-77
2024/03/16 12:46:35;;;;;;;;;;;10.10;99.90;;;;;;4973815;28;20134;-77
2024/03/16 12:49:01;;;;;;;0.38;0.38;;;10.10;99.90;;;;;;4971521;28;20012;-78
2024/03/16 12:51:28;;;;;;;0.40;0.40;;;10.60;99.90;;;;;;4972853;28;20049;-78
2024/03/16 12:53:54;;;;;;;0.40;0.40;;;10.30;99.90;;;;;;4957924;28;20046;-78
2024/03/16 12:56:25;;;;;;;0.40;0.40;;;10.60;99.90;;;;;;4952070;28;20050;-78
2024/03/16 12:58:50;;;;;;;1.10;1.10;;;10.70;99.90;;;;;;4990378;28;20147;-77